sensor_id;sensor_type;location;lat;lon;timestamp;pressure;altitude;pressure_sealevel;temperature;humidity
55685;BME280;41883;49.544;8.646;2022-10-31T03:30:59;100855.53;;;11.60;nan
55685;BME280;41883;49.544;8.646;2022-10-31T08:03:32;100907.75;;;13.17;nan
55685;BME280;41883;49.544;8.646;2022-10-31T08:05:57;100913.50;;;13.39;nan
55685;BME280;41883;49.544;8.646;2022-10-31T08:08:22;100914.88;;;13.51;nan
55685;BME280;41883;49.544;8.646;2022-10-31T08:10:49;100920.09;;;13.61;nan
55685;BME280;41883;49.544;8.646;2022-10-31T08:13:14;100922.41;;;13.72;nan
55685;BME280;41883;49.544;8.646;2022-10-31T08:15:40;100918.28;;;13.78;nan
55685;BME280;41883;49.544;8.646;2022-10-31T08:18:12;100908.34;;;13.80;nan
55685;BME280;41883;49.544;8.646;2022-10-31T08:20:38;100909.16;;;13.89;nan
55685;BME280;41883;49.544;8.646;2022-10-31T08:23:04;100906.34;;;13.98;nan
55685;BME280;41883;49.544;8.646;2022-10-31T08:25:31;100914.69;;;14.12;nan
55685;BME280;41883;49.544;8.646;2022-10-31T08:27:57;100907.38;;;14.30;nan
55685;BME280;41883;49.544;8.646;2022-10-31T08:30:25;100905.53;;;14.47;nan
55685;BME280;41883;49.544;8.646;2022-10-31T08:35:36;100900.03;;;14.73;nan
55685;BME280;41883;49.544;8.646;2022-10-31T08:38:02;100906.63;;;14.94;nan
55685;BME280;41883;49.544;8.646;2022-10-31T08:40:29;100901.03;;;15.20;nan
55685;BME280;41883;49.544;8.646;2022-10-31T08:42:58;100898.97;;;15.30;nan
55685;BME280;41883;49.544;8.646;2022-10-31T08:45:23;100905.94;;;15.39;nan
55685;BME280;41883;49.544;8.646;2022-10-31T08:47:48;100901.41;;;15.48;nan
55685;BME280;41883;49.544;8.646;2022-10-31T08:50:14;100902.16;;;15.65;nan
55685;BME280;41883;49.544;8.646;2022-10-31T08:52:39;100904.91;;;15.80;nan
55685;BME280;41883;49.544;8.646;2022-10-31T08:55:05;100901.47;;;15.94;nan
55685;BME280;41883;49.544;8.646;2022-10-31T08:57:30;100898.81;;;16.17;nan
55685;BME280;41883;49.544;8.646;2022-10-31T08:59:55;100895.78;;;16.20;nan
55685;BME280;41883;49.544;8.646;2022-10-31T09:02:21;100895.34;;;16.31;nan
55685;BME280;41883;49.544;8.646;2022-10-31T09:04:46;100888.53;;;16.29;nan
55685;BME280;41883;49.544;8.646;2022-10-31T09:07:11;100893.47;;;16.40;nan
55685;BME280;41883;49.544;8.646;2022-10-31T09:09:36;100895.97;;;16.56;nan
55685;BME280;41883;49.544;8.646;2022-10-31T09:12:02;100895.84;;;16.88;nan
55685;BME280;41883;49.544;8.646;2022-10-31T09:14:27;100895.28;;;16.92;nan
55685;BME280;41883;49.544;8.646;2022-10-31T09:16:52;100902.47;;;17.07;nan
55685;BME280;41883;49.544;8.646;2022-10-31T09:19:17;100914.63;;;17.09;nan
55685;BME280;41883;49.544;8.646;2022-10-31T09:21:43;100901.91;;;17.11;nan
55685;BME280;41883;49.544;8.646;2022-10-31T09:24:08;100903.66;;;17.19;nan
55685;BME280;41883;49.544;8.646;2022-10-31T09:26:33;100898.03;;;17.29;nan
55685;BME280;41883;49.544;8.646;2022-10-31T09:28:59;100896.13;;;17.44;nan
55685;BME280;41883;49.544;8.646;2022-10-31T09:31:27;100892.16;;;17.55;nan
55685;BME280;41883;49.544;8.646;2022-10-31T09:33:52;100893.38;;;17.52;nan
55685;BME280;41883;49.544;8.646;2022-10-31T09:36:18;100901.09;;;17.62;nan
55685;BME280;41883;49.544;8.646;2022-10-31T09:38:43;100892.09;;;17.70;nan
55685;BME280;41883;49.544;8.646;2022-10-31T09:47:17;100899.59;;;18.17;nan
55685;BME280;41883;49.544;8.646;2022-10-31T09:50:15;100899.66;;;18.24;nan
55685;BME280;41883;49.544;8.646;2022-10-31T09:53:09;100896.41;;;18.29;nan
55685;BME280;41883;49.544;8.646;2022-10-31T09:55:44;100899.97;;;18.36;nan
55685;BME280;41883;49.544;8.646;2022-10-31T09:58:18;100896.13;;;18.45;nan
55685;BME280;41883;49.544;8.646;2022-10-31T10:00:45;100887.16;;;18.59;nan
55685;BME280;41883;49.544;8.646;2022-10-31T10:03:27;100882.09;;;18.71;nan
55685;BME280;41883;49.544;8.646;2022-10-31T10:06:15;100882.00;;;18.86;nan
55685;BME280;41883;49.544;8.646;2022-10-31T10:08:42;100879.75;;;18.89;nan
55685;BME280;41883;49.544;8.646;2022-10-31T10:13:52;100870.97;;;19.02;nan
55685;BME280;41883;49.544;8.646;2022-10-31T10:30:01;100863.56;;;19.72;nan
55685;BME280;41883;49.544;8.646;2022-10-31T10:32:29;100854.28;;;20.55;nan
55685;BME280;41883;49.544;8.646;2022-10-31T10:35:14;100852.53;;;21.84;nan
55685;BME280;41883;49.544;8.646;2022-10-31T10:37:45;100855.44;;;23.13;nan
55685;BME280;41883;49.544;8.646;2022-10-31T10:40:16;100854.50;;;24.10;nan
55685;BME280;41883;49.544;8.646;2022-10-31T10:49:15;100840.19;;;25.66;nan
55685;BME280;41883;49.544;8.646;2022-10-31T10:51:45;100843.34;;;26.09;nan
55685;BME280;41883;49.544;8.646;2022-10-31T10:56:59;100832.53;;;25.46;nan
55685;BME280;41883;49.544;8.646;2022-10-31T10:59:27;100837.47;;;25.20;nan
55685;BME280;41883;49.544;8.646;2022-10-31T11:01:52;100828.59;;;24.85;nan
55685;BME280;41883;49.544;8.646;2022-10-31T11:04:32;100818.78;;;24.08;nan
55685;BME280;41883;49.544;8.646;2022-10-31T11:07:08;100818.50;;;23.44;nan
55685;BME280;41883;49.544;8.646;2022-10-31T11:09:35;100811.25;;;22.96;nan
55685;BME280;41883;49.544;8.646;2022-10-31T11:12:10;100800.59;;;22.64;nan
55685;BME280;41883;49.544;8.646;2022-10-31T11:14:48;100796.31;;;22.19;nan
55685;BME280;41883;49.544;8.646;2022-10-31T11:17:31;100794.44;;;21.95;nan
55685;BME280;41883;49.544;8.646;2022-10-31T11:22:29;100788.28;;;21.62;nan
55685;BME280;41883;49.544;8.646;2022-10-31T11:24:54;100789.09;;;21.31;nan
55685;BME280;41883;49.544;8.646;2022-10-31T11:27:22;100776.31;;;21.20;nan
55685;BME280;41883;49.544;8.646;2022-10-31T11:29:49;100774.72;;;21.12;nan
55685;BME280;41883;49.544;8.646;2022-10-31T11:32:24;100771.88;;;21.00;nan
55685;BME280;41883;49.544;8.646;2022-10-31T11:34:54;100771.31;;;20.85;nan
55685;BME280;41883;49.544;8.646;2022-10-31T11:37:25;100770.78;;;20.70;nan
55685;BME280;41883;49.544;8.646;2022-10-31T11:40:05;100772.84;;;20.68;nan
55685;BME280;41883;49.544;8.646;2022-10-31T11:42:41;100767.09;;;20.57;nan
55685;BME280;41883;49.544;8.646;2022-10-31T11:45:33;100762.09;;;20.54;nan
55685;BME280;41883;49.544;8.646;2022-10-31T11:48:00;100758.41;;;20.49;nan
55685;BME280;41883;49.544;8.646;2022-10-31T11:50:36;100753.69;;;20.37;nan
55685;BME280;41883;49.544;8.646;2022-10-31T11:53:04;100757.00;;;20.33;nan
55685;BME280;41883;49.544;8.646;2022-10-31T11:55:38;100754.09;;;20.34;nan
55685;BME280;41883;49.544;8.646;2022-10-31T11:58:20;100752.66;;;20.32;nan
55685;BME280;41883;49.544;8.646;2022-10-31T12:00:49;100742.38;;;20.22;nan
55685;BME280;41883;49.544;8.646;2022-10-31T12:05:57;100739.06;;;20.13;nan
55685;BME280;41883;49.544;8.646;2022-10-31T12:08:26;100737.44;;;20.12;nan
55685;BME280;41883;49.544;8.646;2022-10-31T12:16:21;100713.72;;;20.54;nan
55685;BME280;41883;49.544;8.646;2022-10-31T12:19:02;100716.91;;;20.38;nan
55685;BME280;41883;49.544;8.646;2022-10-31T12:30:01;100712.63;;;20.24;nan
55685;BME280;41883;49.544;8.646;2022-10-31T12:32:41;100703.53;;;20.11;nan
55685;BME280;41883;49.544;8.646;2022-10-31T12:35:21;100703.53;;;20.18;nan
55685;BME280;41883;49.544;8.646;2022-10-31T12:40:46;100686.25;;;20.01;nan
55685;BME280;41883;49.544;8.646;2022-10-31T12:43:45;100690.38;;;20.03;nan
55685;BME280;41883;49.544;8.646;2022-10-31T12:46:48;100691.81;;;19.99;nan
55685;BME280;41883;49.544;8.646;2022-10-31T12:49:42;100692.03;;;19.91;nan
55685;BME280;41883;49.544;8.646;2022-10-31T12:52:29;100691.59;;;20.01;nan
55685;BME280;41883;49.544;8.646;2022-10-31T12:57:50;100684.41;;;19.88;nan
55685;BME280;41883;49.544;8.646;2022-10-31T13:00:17;100679.44;;;19.85;nan
55685;BME280;41883;49.544;8.646;2022-10-31T13:02:48;100674.13;;;19.71;nan
55685;BME280;41883;49.544;8.646;2022-10-31T13:08:02;100666.03;;;19.78;nan
55685;BME280;41883;49.544;8.646;2022-10-31T13:10:37;100664.41;;;19.70;nan
55685;BME280;41883;49.544;8.646;2022-10-31T13:13:11;100652.44;;;19.66;nan
55685;BME280;41883;49.544;8.646;2022-10-31T13:15:51;100633.44;;;19.61;nan
55685;BME280;41883;49.544;8.646;2022-10-31T13:18:43;100622.72;;;19.41;nan
55685;BME280;41883;49.544;8.646;2022-10-31T13:21:11;100614.25;;;19.38;nan
55685;BME280;41883;49.544;8.646;2022-10-31T13:23:39;100609.31;;;19.41;nan
55685;BME280;41883;49.544;8.646;2022-10-31T13:26:38;100604.56;;;19.30;nan
55685;BME280;41883;49.544;8.646;2022-10-31T13:29:26;100593.84;;;19.30;nan
55685;BME280;41883;49.544;8.646;2022-10-31T13:31:53;100583.75;;;19.32;nan
55685;BME280;41883;49.544;8.646;2022-10-31T13:34:40;100580.25;;;19.25;nan
55685;BME280;41883;49.544;8.646;2022-10-31T13:37:15;100581.28;;;19.17;nan
55685;BME280;41883;49.544;8.646;2022-10-31T13:40:07;100578.84;;;19.02;nan
55685;BME280;41883;49.544;8.646;2022-10-31T13:43:00;100572.81;;;18.87;nan
55685;BME280;41883;49.544;8.646;2022-10-31T13:45:27;100563.97;;;18.80;nan
55685;BME280;41883;49.544;8.646;2022-10-31T13:50:42;100573.81;;;18.73;nan
55685;BME280;41883;49.544;8.646;2022-10-31T13:53:19;100577.59;;;18.78;nan
55685;BME280;41883;49.544;8.646;2022-10-31T13:56:05;100582.31;;;18.96;nan
55685;BME280;41883;49.544;8.646;2022-10-31T13:58:36;100580.28;;;19.12;nan
55685;BME280;41883;49.544;8.646;2022-10-31T14:03:33;100576.25;;;19.67;nan
55685;BME280;41883;49.544;8.646;2022-10-31T14:06:00;100582.19;;;19.96;nan
55685;BME280;41883;49.544;8.646;2022-10-31T14:08:27;100594.66;;;20.29;nan
55685;BME280;41883;49.544;8.646;2022-10-31T14:10:55;100599.09;;;20.03;nan
55685;BME280;41883;49.544;8.646;2022-10-31T14:13:35;100594.38;;;19.99;nan
55685;BME280;41883;49.544;8.646;2022-10-31T14:16:27;100597.94;;;19.72;nan
55685;BME280;41883;49.544;8.646;2022-10-31T14:19:04;100606.59;;;19.61;nan
55685;BME280;41883;49.544;8.646;2022-10-31T14:21:37;100602.53;;;19.39;nan
55685;BME280;41883;49.544;8.646;2022-10-31T14:24:31;100601.28;;;19.28;nan
55685;BME280;41883;49.544;8.646;2022-10-31T14:26:59;100604.56;;;19.23;nan
55685;BME280;41883;49.544;8.646;2022-10-31T14:29:33;100601.50;;;19.20;nan
55685;BME280;41883;49.544;8.646;2022-10-31T14:32:04;100610.34;;;19.14;nan
55685;BME280;41883;49.544;8.646;2022-10-31T14:40:26;100597.38;;;18.91;nan
55685;BME280;41883;49.544;8.646;2022-10-31T14:45:48;100592.75;;;18.58;nan
55685;BME280;41883;49.544;8.646;2022-10-31T14:51:07;100591.25;;;18.29;nan
55685;BME280;41883;49.544;8.646;2022-10-31T14:53:39;100587.50;;;18.16;nan
55685;BME280;41883;49.544;8.646;2022-10-31T14:56:10;100576.91;;;18.01;nan
55685;BME280;41883;49.544;8.646;2022-10-31T14:58:46;100577.06;;;17.87;nan
55685;BME280;41883;49.544;8.646;2022-10-31T15:01:30;100572.81;;;17.71;nan
55685;BME280;41883;49.544;8.646;2022-10-31T15:04:16;100574.34;;;17.52;nan
55685;BME280;41883;49.544;8.646;2022-10-31T15:06:45;100572.81;;;17.36;nan
55685;BME280;41883;49.544;8.646;2022-10-31T15:09:29;100579.91;;;17.22;nan
55685;BME280;41883;49.544;8.646;2022-10-31T15:11:55;100585.59;;;17.12;nan
55685;BME280;41883;49.544;8.646;2022-10-31T15:14:23;100579.19;;;17.07;nan
55685;BME280;41883;49.544;8.646;2022-10-31T15:16:49;100575.06;;;17.04;nan
55685;BME280;41883;49.544;8.646;2022-10-31T15:19:20;100576.06;;;17.03;nan
55685;BME280;41883;49.544;8.646;2022-10-31T15:21:47;100581.41;;;17.03;nan
55685;BME280;41883;49.544;8.646;2022-10-31T15:24:14;100576.69;;;17.05;nan
55685;BME280;41883;49.544;8.646;2022-10-31T15:26:45;100577.34;;;17.07;nan
55685;BME280;41883;49.544;8.646;2022-10-31T15:29:16;100569.50;;;17.06;nan
55685;BME280;41883;49.544;8.646;2022-10-31T15:32:16;100558.75;;;16.99;nan
55685;BME280;41883;49.544;8.646;2022-10-31T15:34:43;100551.13;;;16.96;nan
55685;BME280;41883;49.544;8.646;2022-10-31T15:37:12;100555.84;;;16.94;nan
55685;BME280;41883;49.544;8.646;2022-10-31T15:39:39;100557.25;;;16.90;nan
55685;BME280;41883;49.544;8.646;2022-10-31T15:42:04;100541.81;;;16.85;nan
55685;BME280;41883;49.544;8.646;2022-10-31T15:44:32;100518.06;;;16.75;nan
55685;BME280;41883;49.544;8.646;2022-10-31T15:47:19;100528.69;;;16.69;nan
55685;BME280;41883;49.544;8.646;2022-10-31T15:49:51;100531.13;;;16.64;nan
55685;BME280;41883;49.544;8.646;2022-10-31T15:54:57;100509.69;;;16.57;nan
55685;BME280;41883;49.544;8.646;2022-10-31T15:57:24;100503.53;;;16.56;nan
55685;BME280;41883;49.544;8.646;2022-10-31T15:59:52;100490.56;;;16.53;nan
55685;BME280;41883;49.544;8.646;2022-10-31T16:02:21;100464.91;;;16.52;nan
55685;BME280;41883;49.544;8.646;2022-10-31T16:07:18;100459.75;;;16.51;nan
55685;BME280;41883;49.544;8.646;2022-10-31T16:12:26;100455.78;;;16.47;nan
55685;BME280;41883;49.544;8.646;2022-10-31T16:14:54;100450.84;;;16.44;nan
55685;BME280;41883;49.544;8.646;2022-10-31T16:17:22;100447.75;;;16.40;nan
55685;BME280;41883;49.544;8.646;2022-10-31T16:19:53;100425.06;;;16.29;nan
55685;BME280;41883;49.544;8.646;2022-10-31T16:22:29;100413.75;;;16.27;nan
55685;BME280;41883;49.544;8.646;2022-10-31T16:25:13;100391.16;;;16.23;nan
55685;BME280;41883;49.544;8.646;2022-10-31T16:27:40;100368.47;;;16.12;nan
55685;BME280;41883;49.544;8.646;2022-10-31T16:30:39;100377.44;;;16.05;nan
55685;BME280;41883;49.544;8.646;2022-10-31T16:35:45;100405.63;;;15.92;nan
55685;BME280;41883;49.544;8.646;2022-10-31T16:38:10;100405.75;;;15.84;nan
55685;BME280;41883;49.544;8.646;2022-10-31T16:40:37;100395.38;;;15.75;nan
55685;BME280;41883;49.544;8.646;2022-10-31T16:43:03;100394.09;;;15.70;nan
55685;BME280;41883;49.544;8.646;2022-10-31T16:45:32;100394.09;;;15.70;nan
55685;BME280;41883;49.544;8.646;2022-10-31T16:48:04;100400.44;;;15.69;nan
55685;BME280;41883;49.544;8.646;2022-10-31T16:50:30;100410.09;;;15.70;nan
55685;BME280;41883;49.544;8.646;2022-10-31T16:52:55;100413.13;;;15.67;nan
55685;BME280;41883;49.544;8.646;2022-10-31T16:55:20;100439.69;;;15.61;nan
55685;BME280;41883;49.544;8.646;2022-10-31T16:57:48;100461.00;;;15.61;nan
55685;BME280;41883;49.544;8.646;2022-10-31T17:00:25;100475.00;;;15.63;nan
55685;BME280;41883;49.544;8.646;2022-10-31T17:02:53;100468.47;;;15.65;nan
55685;BME280;41883;49.544;8.646;2022-10-31T17:05:20;100461.28;;;15.66;nan
55685;BME280;41883;49.544;8.646;2022-10-31T17:07:46;100471.13;;;15.65;nan
55685;BME280;41883;49.544;8.646;2022-10-31T17:10:12;100469.91;;;15.68;nan
55685;BME280;41883;49.544;8.646;2022-10-31T17:12:41;100464.59;;;15.68;nan
55685;BME280;41883;49.544;8.646;2022-10-31T17:15:24;100454.88;;;15.75;nan
55685;BME280;41883;49.544;8.646;2022-10-31T17:17:49;100461.41;;;15.73;nan
55685;BME280;41883;49.544;8.646;2022-10-31T17:20:24;100454.31;;;15.65;nan
55685;BME280;41883;49.544;8.646;2022-10-31T17:22:50;100439.03;;;15.59;nan
55685;BME280;41883;49.544;8.646;2022-10-31T17:25:18;100433.28;;;15.55;nan
55685;BME280;41883;49.544;8.646;2022-10-31T17:27:43;100421.88;;;15.46;nan
55685;BME280;41883;49.544;8.646;2022-10-31T17:30:11;100420.53;;;15.36;nan
55685;BME280;41883;49.544;8.646;2022-10-31T17:32:37;100404.19;;;15.24;nan
55685;BME280;41883;49.544;8.646;2022-10-31T17:35:03;100392.25;;;15.20;nan
55685;BME280;41883;49.544;8.646;2022-10-31T17:37:28;100391.53;;;15.26;nan
55685;BME280;41883;49.544;8.646;2022-10-31T17:39:53;100395.53;;;15.37;nan
55685;BME280;41883;49.544;8.646;2022-10-31T17:42:18;100396.91;;;15.47;nan
55685;BME280;41883;49.544;8.646;2022-10-31T17:44:44;100394.81;;;15.43;nan
55685;BME280;41883;49.544;8.646;2022-10-31T17:47:09;100396.66;;;15.42;nan
55685;BME280;41883;49.544;8.646;2022-10-31T17:49:34;100400.91;;;15.58;nan
55685;BME280;41883;49.544;8.646;2022-10-31T17:51:59;100399.16;;;15.65;nan
55685;BME280;41883;49.544;8.646;2022-10-31T17:54:25;100405.22;;;15.74;nan
55685;BME280;41883;49.544;8.646;2022-10-31T17:56:52;100407.97;;;15.66;nan
55685;BME280;41883;49.544;8.646;2022-10-31T17:59:17;100401.84;;;15.50;nan
55685;BME280;41883;49.544;8.646;2022-10-31T18:01:42;100397.00;;;15.39;nan
55685;BME280;41883;49.544;8.646;2022-10-31T18:04:08;100397.50;;;15.28;nan
55685;BME280;41883;49.544;8.646;2022-10-31T18:06:33;100404.28;;;15.16;nan
55685;BME280;41883;49.544;8.646;2022-10-31T18:09:02;100408.06;;;15.06;nan
55685;BME280;41883;49.544;8.646;2022-10-31T18:11:27;100407.88;;;14.93;nan
55685;BME280;41883;49.544;8.646;2022-10-31T18:13:54;100410.97;;;14.82;nan
55685;BME280;41883;49.544;8.646;2022-10-31T18:16:20;100412.91;;;14.73;nan
55685;BME280;41883;49.544;8.646;2022-10-31T18:18:55;100428.59;;;14.68;nan
55685;BME280;41883;49.544;8.646;2022-10-31T18:21:23;100438.78;;;14.64;nan
55685;BME280;41883;49.544;8.646;2022-10-31T18:23:56;100438.28;;;14.61;nan
55685;BME280;41883;49.544;8.646;2022-10-31T18:26:22;100440.34;;;14.59;nan
55685;BME280;41883;49.544;8.646;2022-10-31T18:28:48;100446.34;;;14.53;nan
55685;BME280;41883;49.544;8.646;2022-10-31T18:31:13;100445.56;;;14.44;nan
55685;BME280;41883;49.544;8.646;2022-10-31T18:33:39;100451.78;;;14.36;nan
55685;BME280;41883;49.544;8.646;2022-10-31T18:36:07;100478.09;;;14.31;nan
55685;BME280;41883;49.544;8.646;2022-10-31T18:38:35;100495.41;;;14.27;nan
55685;BME280;41883;49.544;8.646;2022-10-31T18:41:01;100493.28;;;14.22;nan
55685;BME280;41883;49.544;8.646;2022-10-31T18:43:27;100490.31;;;14.17;nan
55685;BME280;41883;49.544;8.646;2022-10-31T18:45:52;100490.03;;;14.12;nan
55685;BME280;41883;49.544;8.646;2022-10-31T18:48:17;100483.88;;;14.12;nan
55685;BME280;41883;49.544;8.646;2022-10-31T18:50:43;100478.56;;;14.12;nan
55685;BME280;41883;49.544;8.646;2022-10-31T18:53:08;100484.03;;;14.10;nan
55685;BME280;41883;49.544;8.646;2022-10-31T18:55:38;100475.09;;;14.11;nan
55685;BME280;41883;49.544;8.646;2022-10-31T18:58:03;100468.75;;;14.12;nan
55685;BME280;41883;49.544;8.646;2022-10-31T19:00:28;100476.72;;;14.12;nan
55685;BME280;41883;49.544;8.646;2022-10-31T19:02:53;100471.09;;;14.07;nan
55685;BME280;41883;49.544;8.646;2022-10-31T19:05:19;100466.16;;;14.04;nan
55685;BME280;41883;49.544;8.646;2022-10-31T19:07:45;100478.59;;;14.03;nan
55685;BME280;41883;49.544;8.646;2022-10-31T19:10:11;100468.69;;;13.97;nan
55685;BME280;41883;49.544;8.646;2022-10-31T19:12:36;100474.16;;;13.96;nan
55685;BME280;41883;49.544;8.646;2022-10-31T19:15:01;100482.13;;;13.96;nan
55685;BME280;41883;49.544;8.646;2022-10-31T19:17:26;100477.34;;;13.91;nan
55685;BME280;41883;49.544;8.646;2022-10-31T19:19:52;100483.19;;;13.87;nan
55685;BME280;41883;49.544;8.646;2022-10-31T19:22:17;100475.56;;;13.84;nan
55685;BME280;41883;49.544;8.646;2022-10-31T19:24:42;100466.78;;;13.83;nan
55685;BME280;41883;49.544;8.646;2022-10-31T19:27:08;100463.28;;;13.83;nan
55685;BME280;41883;49.544;8.646;2022-10-31T19:29:34;100478.56;;;13.80;nan
55685;BME280;41883;49.544;8.646;2022-10-31T19:31:59;100476.44;;;13.76;nan
55685;BME280;41883;49.544;8.646;2022-10-31T19:34:24;100470.47;;;13.74;nan
55685;BME280;41883;49.544;8.646;2022-10-31T19:36:50;100467.16;;;13.72;nan
55685;BME280;41883;49.544;8.646;2022-10-31T19:39:15;100466.69;;;13.68;nan
55685;BME280;41883;49.544;8.646;2022-10-31T19:41:40;100462.50;;;13.66;nan
55685;BME280;41883;49.544;8.646;2022-10-31T19:44:06;100445.75;;;13.65;nan
55685;BME280;41883;49.544;8.646;2022-10-31T19:46:33;100436.78;;;13.66;nan
55685;BME280;41883;49.544;8.646;2022-10-31T19:48:58;100459.84;;;13.66;nan
55685;BME280;41883;49.544;8.646;2022-10-31T19:51:23;100469.19;;;13.62;nan
55685;BME280;41883;49.544;8.646;2022-10-31T19:53:48;100445.16;;;13.55;nan
55685;BME280;41883;49.544;8.646;2022-10-31T19:56:16;100432.88;;;13.54;nan
55685;BME280;41883;49.544;8.646;2022-10-31T19:58:42;100456.78;;;13.54;nan
55685;BME280;41883;49.544;8.646;2022-10-31T20:01:08;100459.75;;;13.51;nan
55685;BME280;41883;49.544;8.646;2022-10-31T20:03:36;100462.28;;;13.44;nan
55685;BME280;41883;49.544;8.646;2022-10-31T20:06:03;100465.78;;;13.36;nan
55685;BME280;41883;49.544;8.646;2022-10-31T20:08:28;100483.41;;;13.29;nan
55685;BME280;41883;49.544;8.646;2022-10-31T20:10:55;100475.44;;;13.21;nan
55685;BME280;41883;49.544;8.646;2022-10-31T20:13:21;100485.75;;;13.16;nan
55685;BME280;41883;49.544;8.646;2022-10-31T20:15:46;100485.44;;;13.11;nan
55685;BME280;41883;49.544;8.646;2022-10-31T20:18:12;100479.63;;;13.07;nan
55685;BME280;41883;49.544;8.646;2022-10-31T20:20:37;100499.72;;;13.02;nan
55685;BME280;41883;49.544;8.646;2022-10-31T20:23:02;100486.78;;;12.99;nan
55685;BME280;41883;49.544;8.646;2022-10-31T20:25:27;100475.31;;;12.98;nan
55685;BME280;41883;49.544;8.646;2022-10-31T20:27:53;100461.56;;;13.03;nan
55685;BME280;41883;49.544;8.646;2022-10-31T20:30:18;100482.78;;;13.03;nan
55685;BME280;41883;49.544;8.646;2022-10-31T20:32:43;100481.66;;;12.97;nan
55685;BME280;41883;49.544;8.646;2022-10-31T20:35:09;100480.63;;;12.98;nan
55685;BME280;41883;49.544;8.646;2022-10-31T20:37:34;100499.38;;;12.96;nan
55685;BME280;41883;49.544;8.646;2022-10-31T20:39:59;100486.09;;;12.96;nan
55685;BME280;41883;49.544;8.646;2022-10-31T20:42:25;100497.72;;;12.95;nan
55685;BME280;41883;49.544;8.646;2022-10-31T20:44:50;100482.16;;;12.92;nan
55685;BME280;41883;49.544;8.646;2022-10-31T20:47:15;100486.47;;;12.85;nan
55685;BME280;41883;49.544;8.646;2022-10-31T20:49:40;100478.81;;;12.82;nan
55685;BME280;41883;49.544;8.646;2022-10-31T20:52:06;100474.03;;;12.78;nan
55685;BME280;41883;49.544;8.646;2022-10-31T20:54:31;100473.53;;;12.74;nan
55685;BME280;41883;49.544;8.646;2022-10-31T20:56:56;100479.19;;;12.71;nan
55685;BME280;41883;49.544;8.646;2022-10-31T20:59:22;100469.22;;;12.65;nan
55685;BME280;41883;49.544;8.646;2022-10-31T21:01:47;100466.91;;;12.62;nan
55685;BME280;41883;49.544;8.646;2022-10-31T21:04:12;100465.75;;;12.64;nan
55685;BME280;41883;49.544;8.646;2022-10-31T21:06:38;100463.09;;;12.64;nan
55685;BME280;41883;49.544;8.646;2022-10-31T21:09:03;100469.06;;;12.66;nan
55685;BME280;41883;49.544;8.646;2022-10-31T21:11:29;100470.56;;;12.69;nan
55685;BME280;41883;49.544;8.646;2022-10-31T21:13:57;100465.91;;;12.71;nan
55685;BME280;41883;49.544;8.646;2022-10-31T21:16:29;100466.06;;;12.69;nan
55685;BME280;41883;49.544;8.646;2022-10-31T21:18:55;100470.22;;;12.72;nan
55685;BME280;41883;49.544;8.646;2022-10-31T21:21:26;100459.44;;;12.73;nan
55685;BME280;41883;49.544;8.646;2022-10-31T21:23:55;100465.25;;;12.69;nan
55685;BME280;41883;49.544;8.646;2022-10-31T21:26:23;100453.16;;;12.66;nan
55685;BME280;41883;49.544;8.646;2022-10-31T21:28:50;100445.00;;;12.68;nan
55685;BME280;41883;49.544;8.646;2022-10-31T21:31:17;100444.00;;;12.77;nan
55685;BME280;41883;49.544;8.646;2022-10-31T21:33:43;100449.13;;;12.87;nan
55685;BME280;41883;49.544;8.646;2022-10-31T21:36:09;100433.69;;;12.99;nan
55685;BME280;41883;49.544;8.646;2022-10-31T21:38:35;100426.03;;;13.12;nan
55685;BME280;41883;49.544;8.646;2022-10-31T21:41:06;100418.88;;;13.21;nan
55685;BME280;41883;49.544;8.646;2022-10-31T21:43:34;100414.56;;;13.28;nan
55685;BME280;41883;49.544;8.646;2022-10-31T21:46:05;100401.91;;;13.38;nan
55685;BME280;41883;49.544;8.646;2022-10-31T21:48:30;100401.19;;;13.44;nan
55685;BME280;41883;49.544;8.646;2022-10-31T21:51:01;100407.00;;;13.48;nan
55685;BME280;41883;49.544;8.646;2022-10-31T21:53:27;100407.34;;;13.45;nan
55685;BME280;41883;49.544;8.646;2022-10-31T21:56:11;100417.63;;;13.48;nan
55685;BME280;41883;49.544;8.646;2022-10-31T21:58:36;100405.16;;;13.48;nan
55685;BME280;41883;49.544;8.646;2022-10-31T22:01:02;100390.69;;;13.51;nan
55685;BME280;41883;49.544;8.646;2022-10-31T22:03:27;100391.34;;;13.53;nan
55685;BME280;41883;49.544;8.646;2022-10-31T22:05:53;100390.19;;;13.55;nan
55685;BME280;41883;49.544;8.646;2022-10-31T22:08:18;100393.66;;;13.56;nan
55685;BME280;41883;49.544;8.646;2022-10-31T22:10:43;100403.16;;;13.50;nan
55685;BME280;41883;49.544;8.646;2022-10-31T22:13:08;100411.00;;;13.44;nan
55685;BME280;41883;49.544;8.646;2022-10-31T22:15:34;100425.31;;;13.34;nan
55685;BME280;41883;49.544;8.646;2022-10-31T22:17:59;100420.81;;;13.27;nan
55685;BME280;41883;49.544;8.646;2022-10-31T22:20:24;100413.88;;;13.17;nan
55685;BME280;41883;49.544;8.646;2022-10-31T22:22:50;100424.03;;;13.14;nan
55685;BME280;41883;49.544;8.646;2022-10-31T22:25:15;100437.66;;;13.11;nan
55685;BME280;41883;49.544;8.646;2022-10-31T22:27:41;100441.28;;;13.10;nan
55685;BME280;41883;49.544;8.646;2022-10-31T22:30:07;100438.47;;;13.11;nan
55685;BME280;41883;49.544;8.646;2022-10-31T22:32:32;100435.16;;;13.09;nan
55685;BME280;41883;49.544;8.646;2022-10-31T22:34:58;100433.34;;;13.10;nan
55685;BME280;41883;49.544;8.646;2022-10-31T22:37:23;100431.84;;;13.07;nan
55685;BME280;41883;49.544;8.646;2022-10-31T22:39:48;100433.00;;;13.05;nan
55685;BME280;41883;49.544;8.646;2022-10-31T22:42:14;100419.91;;;13.03;nan
55685;BME280;41883;49.544;8.646;2022-10-31T22:44:39;100420.91;;;13.02;nan
55685;BME280;41883;49.544;8.646;2022-10-31T22:47:04;100410.28;;;13.02;nan
55685;BME280;41883;49.544;8.646;2022-10-31T22:49:30;100407.63;;;13.02;nan
55685;BME280;41883;49.544;8.646;2022-10-31T22:51:55;100406.81;;;13.02;nan